createdAt,value
2018-11-13T05:24:15.501Z,4.00
2018-11-13T05:26:44.532Z,3.90
2018-11-13T05:29:13.172Z,4.00
2018-11-13T05:31:41.851Z,3.90
2018-11-13T05:34:10.232Z,3.90
2018-11-13T05:36:38.621Z,3.90
2018-11-13T05:39:09.165Z,3.90
2018-11-13T05:41:37.865Z,4.00
2018-11-13T05:44:07.175Z,4.00
2018-11-13T05:46:36.112Z,4.00
2018-11-13T05:49:04.574Z,4.00
2018-11-13T05:51:33.380Z,4.10
2018-11-13T05:54:02.205Z,4.10
2018-11-13T05:56:30.945Z,4.10
2018-11-13T05:58:59.883Z,4.10
2018-11-13T06:01:28.277Z,4.10
2018-11-13T06:03:57.291Z,4.10
2018-11-13T06:06:25.896Z,4.10
2018-11-13T06:08:54.472Z,4.10
2018-11-13T06:11:22.885Z,4.10
2018-11-13T06:13:52.036Z,4.10
2018-11-13T06:16:20.425Z,4.00
2018-11-13T06:18:49.639Z,4.00
2018-11-13T06:21:18.225Z,4.00
2018-11-13T06:23:47.008Z,4.00
2018-11-13T06:26:16.079Z,4.00
2018-11-13T06:28:45.102Z,4.00
2018-11-13T06:31:14.654Z,4.00
2018-11-13T06:33:43.075Z,4.00
2018-11-13T06:36:11.661Z,4.10
2018-11-13T06:38:40.649Z,4.10
2018-11-13T06:41:09.100Z,4.10
2018-11-13T06:43:37.632Z,4.10
2018-11-13T06:46:06.386Z,4.10
2018-11-13T06:48:35.751Z,4.10
2018-11-13T06:51:04.161Z,4.10
2018-11-13T06:53:42.307Z,4.10
2018-11-13T06:56:10.724Z,4.10
2018-11-13T06:58:39.353Z,4.00
2018-11-13T07:01:08.048Z,4.10
2018-11-13T07:03:36.740Z,4.00
2018-11-13T07:06:05.253Z,4.00
2018-11-13T07:08:34.126Z,3.90
2018-11-13T07:11:02.922Z,3.80
2018-11-13T07:13:31.461Z,3.70
2018-11-13T07:15:59.969Z,3.60
2018-11-13T07:18:28.930Z,3.60
2018-11-13T07:20:57.235Z,3.50
2018-11-13T07:23:25.975Z,3.60
2018-11-13T07:25:55.701Z,3.60
2018-11-13T07:28:24.188Z,3.60
2018-11-13T07:30:52.597Z,3.60
2018-11-13T07:33:20.979Z,3.70
2018-11-13T07:35:49.666Z,3.90
2018-11-13T07:38:18.398Z,4.00
2018-11-13T07:40:47.140Z,4.10
2018-11-13T07:43:15.536Z,4.20
2018-11-13T07:45:43.931Z,4.30
2018-11-13T07:48:12.510Z,4.50
2018-11-13T07:50:40.877Z,4.50
2018-11-13T07:53:09.576Z,4.70
2018-11-13T07:55:38.295Z,4.80
2018-11-13T07:58:06.703Z,5.00
2018-11-13T08:00:35.698Z,5.30
2018-11-13T08:03:15.239Z,5.70
2018-11-13T08:05:43.921Z,6.20
2018-11-13T08:08:12.424Z,7.00
2018-11-13T08:10:41.413Z,7.80
2018-11-13T08:13:10.153Z,8.60
2018-11-13T08:15:38.510Z,9.80
2018-11-13T08:18:07.442Z,11.00
2018-11-13T08:20:35.853Z,12.20
2018-11-13T08:23:04.256Z,12.90
2018-11-13T08:25:32.883Z,13.80
2018-11-13T08:28:01.662Z,14.80
2018-11-13T08:30:31.203Z,15.60
2018-11-13T08:33:00.180Z,16.20
2018-11-13T08:35:29.092Z,17.00
2018-11-13T08:37:57.810Z,17.20
2018-11-13T08:40:26.538Z,17.30
2018-11-13T08:42:54.969Z,17.10
2018-11-13T08:45:23.367Z,17.20
2018-11-13T08:47:53.568Z,17.10
2018-11-13T08:50:22.047Z,16.90
2018-11-13T08:52:50.375Z,16.80
2018-11-13T08:55:18.988Z,16.90
2018-11-13T08:57:47.931Z,16.90
2018-11-13T09:00:18.223Z,16.40
2018-11-13T09:02:47.691Z,15.70
2018-11-13T09:05:16.585Z,15.10
2018-11-13T09:07:45.992Z,14.90
2018-11-13T09:10:16.235Z,14.20
2018-11-13T09:12:45.468Z,14.10
2018-11-13T09:15:15.752Z,13.50
2018-11-13T09:17:44.205Z,13.80
2018-11-13T09:20:14.265Z,14.30
2018-11-13T09:22:43.204Z,14.60
2018-11-13T09:25:16.249Z,14.90
2018-11-13T09:27:45.118Z,14.40
2018-11-13T09:30:15.632Z,14.30
2018-11-13T09:32:45.289Z,14.10
2018-11-13T09:35:15.200Z,13.70
2018-11-13T09:37:44.026Z,13.10
2018-11-13T09:40:15.054Z,12.80
2018-11-13T09:42:44.866Z,12.70
2018-11-13T09:45:14.257Z,12.50
2018-11-13T09:47:42.843Z,12.70
2018-11-13T09:50:14.149Z,12.80
2018-11-13T09:52:43.940Z,13.00
2018-11-13T09:55:14.810Z,13.30
2018-11-13T09:57:43.452Z,13.30
2018-11-13T10:00:19.168Z,13.40
2018-11-13T10:02:49.753Z,13.20
2018-11-13T10:05:19.047Z,13.00
2018-11-13T10:07:47.732Z,12.40
2018-11-13T10:10:16.437Z,12.30
2018-11-13T10:12:44.812Z,12.20
2018-11-13T10:15:15.775Z,12.20
2018-11-13T10:17:44.301Z,12.00
2018-11-13T10:20:14.246Z,12.10
2018-11-13T10:22:44.174Z,11.90
2018-11-13T10:25:13.120Z,11.70
2018-11-13T10:27:42.479Z,11.60
2018-11-13T10:30:16.954Z,11.40
2018-11-13T10:32:47.248Z,11.20
2018-11-13T10:35:17.608Z,11.00
2018-11-13T10:37:46.037Z,10.90
2018-11-13T10:40:16.089Z,10.90
2018-11-13T10:42:44.531Z,10.90
2018-11-13T10:45:17.094Z,11.00
2018-11-13T10:47:46.051Z,11.10
2018-11-13T10:50:20.412Z,11.00
2018-11-13T10:52:48.719Z,11.10
2018-11-13T10:55:17.893Z,11.40
2018-11-13T10:57:46.247Z,11.70
2018-11-13T11:00:21.357Z,11.80
2018-11-13T11:02:55.888Z,11.90
2018-11-13T11:05:25.608Z,12.00
2018-11-13T11:07:54.798Z,12.20
2018-11-13T11:10:23.278Z,12.50
2018-11-13T11:12:51.971Z,13.10
2018-11-13T11:15:20.611Z,13.40
2018-11-13T11:17:49.342Z,13.60
2018-11-13T11:20:18.308Z,13.70
2018-11-13T11:22:47.079Z,13.50
2018-11-13T11:25:15.554Z,13.30
2018-11-13T11:27:44.355Z,13.10
2018-11-13T11:30:14.823Z,12.80
2018-11-13T11:32:43.401Z,12.70
2018-11-13T11:35:12.568Z,12.50
2018-11-13T11:37:41.786Z,12.20
2018-11-13T11:40:11.207Z,12.20
2018-11-13T11:42:39.970Z,12.00
2018-11-13T11:45:11.909Z,11.90
2018-11-13T11:47:40.635Z,11.80
2018-11-13T11:50:10.512Z,11.80
2018-11-13T11:52:39.217Z,11.70
2018-11-13T11:55:08.507Z,11.60
2018-11-13T11:57:37.259Z,11.60
2018-11-13T12:00:09.480Z,11.50
2018-11-13T12:02:37.893Z,11.50
2018-11-13T12:05:07.718Z,11.40
2018-11-13T12:07:36.858Z,11.40
2018-11-13T12:10:07.364Z,11.40
2018-11-13T12:12:36.040Z,11.50
2018-11-13T12:15:06.001Z,11.50
2018-11-13T12:17:34.379Z,11.50
2018-11-13T12:20:02.798Z,11.50
2018-11-13T12:22:31.743Z,11.40
2018-11-13T12:25:00.139Z,11.40
2018-11-13T12:27:28.583Z,11.50
2018-11-13T12:29:57.153Z,11.60
2018-11-13T12:32:25.534Z,11.60
2018-11-13T12:34:53.949Z,11.70
2018-11-13T12:37:23.324Z,11.70
2018-11-13T12:39:51.984Z,11.70
2018-11-13T12:42:20.869Z,11.80
2018-11-13T12:44:49.907Z,11.70
2018-11-13T12:47:18.688Z,11.70
2018-11-13T12:49:47.272Z,11.70
2018-11-13T12:52:18.290Z,11.70
2018-11-13T12:54:47.580Z,11.70
2018-11-13T12:57:16.653Z,11.60
2018-11-13T12:59:45.349Z,11.60
2018-11-13T13:02:14.177Z,11.60
2018-11-13T13:04:42.823Z,11.60
2018-11-13T13:07:12.047Z,11.50
2018-11-13T13:09:40.897Z,11.40
2018-11-13T13:12:10.395Z,11.40
2018-11-13T13:14:39.116Z,11.30
2018-11-13T13:17:07.743Z,11.30
2018-11-13T13:19:36.106Z,11.30
2018-11-13T13:22:04.716Z,11.30
2018-11-13T13:24:33.468Z,11.20
2018-11-13T13:27:02.476Z,11.20
2018-11-13T13:29:31.459Z,11.20
2018-11-13T13:32:00.253Z,11.10
2018-11-13T13:34:28.690Z,11.10
2018-11-13T13:36:57.090Z,11.10
2018-11-13T13:39:25.646Z,11.00
2018-11-13T13:41:54.586Z,11.00
2018-11-13T13:44:22.981Z,11.00
2018-11-13T13:46:51.675Z,11.00
2018-11-13T13:49:20.064Z,10.90
2018-11-13T13:51:48.808Z,10.90
2018-11-13T13:54:17.772Z,10.90
2018-11-13T13:56:46.119Z,10.90
2018-11-13T13:59:14.810Z,10.80
2018-11-13T14:01:43.749Z,10.80
2018-11-13T14:04:12.157Z,10.70
2018-11-13T14:06:41.269Z,10.70
2018-11-13T14:09:10.991Z,10.70
2018-11-13T14:11:39.789Z,10.70
2018-11-13T14:14:08.947Z,10.70
2018-11-13T14:16:38.857Z,10.70
2018-11-13T14:19:07.619Z,10.70
2018-11-13T14:21:36.323Z,10.60
2018-11-13T14:24:05.021Z,10.60
2018-11-13T14:26:34.003Z,10.60
2018-11-13T14:29:02.720Z,10.60
2018-11-13T14:31:31.490Z,10.60
2018-11-13T14:33:59.942Z,10.60
2018-11-13T14:36:28.628Z,10.60
2018-11-13T14:38:57.392Z,10.60
2018-11-13T14:41:26.098Z,10.60
2018-11-13T14:43:54.548Z,10.60
2018-11-13T14:46:23.037Z,10.60
2018-11-13T14:48:52.146Z,10.60
2018-11-13T14:51:20.856Z,10.50
2018-11-13T14:53:49.279Z,10.50
2018-11-13T14:56:18.690Z,10.50
2018-11-13T14:58:47.251Z,10.50
2018-11-13T15:01:15.732Z,10.40
2018-11-13T15:03:44.313Z,10.40
2018-11-13T15:06:13.211Z,10.40
2018-11-13T15:08:41.641Z,10.30
2018-11-13T15:11:10.346Z,10.30
2018-11-13T15:13:38.753Z,10.30
2018-11-13T15:16:09.654Z,10.30
2018-11-13T15:18:41.331Z,10.30
2018-11-13T15:21:11.867Z,10.20
2018-11-13T15:23:41.638Z,10.20
2018-11-13T15:26:10.397Z,10.20
2018-11-13T15:28:39.427Z,10.20
2018-11-13T15:31:07.932Z,10.20
2018-11-13T15:33:36.610Z,10.20
2018-11-13T15:36:05.566Z,10.10
2018-11-13T15:38:34.085Z,10.10
2018-11-13T15:41:02.847Z,10.00
2018-11-13T15:43:31.224Z,10.00
2018-11-13T15:45:59.963Z,10.00
2018-11-13T15:48:28.384Z,9.90
2018-11-13T15:50:57.002Z,9.80
2018-11-13T15:53:25.390Z,9.80
2018-11-13T15:55:53.797Z,9.80
2018-11-13T16:01:09.593Z,9.70
2018-11-13T16:03:39.200Z,9.60
2018-11-13T16:06:08.587Z,9.60
2018-11-13T16:08:38.424Z,9.50
2018-11-13T16:11:07.797Z,9.50
2018-11-13T16:13:36.683Z,9.50
2018-11-13T16:16:05.660Z,9.50
2018-11-13T16:18:34.675Z,9.50
2018-11-13T16:21:03.566Z,9.50
2018-11-13T16:23:32.617Z,9.40
2018-11-13T16:26:01.296Z,9.40
2018-11-13T16:28:30.649Z,9.40
2018-11-13T16:30:59.980Z,9.40
2018-11-13T16:33:49.436Z,9.40
2018-11-13T16:36:19.052Z,9.40
2018-11-13T16:38:59.645Z,9.30
2018-11-13T16:41:28.243Z,9.30
2018-11-13T16:44:20.040Z,9.20
2018-11-13T16:46:48.557Z,9.20
2018-11-13T16:49:23.940Z,9.10
2018-11-13T16:51:53.714Z,9.10
2018-11-13T16:54:22.590Z,9.00
2018-11-13T16:56:55.251Z,8.90
2018-11-13T16:59:24.026Z,8.90
2018-11-13T17:01:52.868Z,8.90
2018-11-13T17:04:21.620Z,8.90
2018-11-13T17:06:51.402Z,8.90
2018-11-13T17:09:20.249Z,8.90
2018-11-13T17:11:48.822Z,8.90
2018-11-13T17:14:17.376Z,9.00
2018-11-13T17:16:45.961Z,9.00
2018-11-13T17:19:14.688Z,9.00
2018-11-13T17:21:43.298Z,9.00
2018-11-13T17:24:11.916Z,9.00
2018-11-13T17:26:40.754Z,9.00
2018-11-13T17:29:09.182Z,9.00
2018-11-13T17:31:38.631Z,9.00
2018-11-13T17:34:07.121Z,9.00
2018-11-13T17:36:35.530Z,9.00
2018-11-13T17:39:04.863Z,9.00
2018-11-13T17:41:33.469Z,9.00
2018-11-13T17:44:02.178Z,8.90
2018-11-13T17:46:30.590Z,8.80
2018-11-13T17:48:58.999Z,8.80
2018-11-13T17:51:27.630Z,8.70
2018-11-13T17:53:56.011Z,8.60
2018-11-13T17:56:24.688Z,8.60
2018-11-13T17:58:53.521Z,8.60
2018-11-13T18:01:22.349Z,8.50
2018-11-13T18:03:51.062Z,8.50
2018-11-13T18:06:20.019Z,8.40
2018-11-13T18:08:49.016Z,8.40
2018-11-13T18:11:17.694Z,8.30
2018-11-13T18:13:46.390Z,8.30
2018-11-13T18:16:14.842Z,8.20
2018-11-13T18:18:43.198Z,8.10
2018-11-13T18:21:12.142Z,8.00
2018-11-13T18:23:40.659Z,8.00
2018-11-13T18:26:09.529Z,7.90
2018-11-13T18:28:38.509Z,7.80
2018-11-13T18:31:07.499Z,7.70
2018-11-13T18:33:36.155Z,7.70
2018-11-13T18:36:04.602Z,7.60
2018-11-13T18:38:33.132Z,7.50
2018-11-13T18:41:01.611Z,7.50
2018-11-13T18:43:30.010Z,7.40
2018-11-13T18:45:58.388Z,7.30
2018-11-13T18:48:27.386Z,7.30
2018-11-13T18:50:55.804Z,7.20
2018-11-13T18:53:24.544Z,7.20
2018-11-13T18:55:53.169Z,7.10
2018-11-13T18:58:22.094Z,7.00
2018-11-13T19:00:50.793Z,7.00
2018-11-13T19:03:19.747Z,6.90
2018-11-13T19:05:48.148Z,6.90
2018-11-13T19:08:17.206Z,6.80
2018-11-13T19:10:47.623Z,6.90
2018-11-13T19:13:18.266Z,6.90
2018-11-13T19:15:50.873Z,6.90
2018-11-13T19:18:20.832Z,7.00
2018-11-13T19:20:50.128Z,7.00
2018-11-13T19:23:19.766Z,7.00
2018-11-13T19:25:48.379Z,7.00
2018-11-13T19:28:18.111Z,7.00
2018-11-13T19:30:47.009Z,7.00
2018-11-13T19:33:15.446Z,6.90
2018-11-13T19:35:44.504Z,6.90
2018-11-13T19:38:12.802Z,6.80
2018-11-13T19:40:41.395Z,6.80
2018-11-13T19:43:11.426Z,6.70
2018-11-13T19:45:40.378Z,6.60
2018-11-13T19:48:09.107Z,6.50
2018-11-13T19:50:38.766Z,6.50
2018-11-13T19:53:07.412Z,6.50
2018-11-13T19:55:35.973Z,6.40
2018-11-13T19:58:04.679Z,6.40
2018-11-13T20:00:35.546Z,6.30
2018-11-13T20:03:05.848Z,6.20
2018-11-13T20:05:34.613Z,6.20
2018-11-13T20:08:03.727Z,6.10
2018-11-13T20:10:33.484Z,6.00
2018-11-13T20:13:03.265Z,5.90
2018-11-13T20:15:32.628Z,5.90
2018-11-13T20:18:01.568Z,5.80
2018-11-13T20:20:31.290Z,5.70
2018-11-13T20:23:00.972Z,5.70
2018-11-13T20:25:30.903Z,5.70
2018-11-13T20:27:59.695Z,5.60
2018-11-13T20:30:35.752Z,5.50
2018-11-13T20:33:04.456Z,5.50
2018-11-13T20:35:33.161Z,5.40
2018-11-13T20:38:02.359Z,5.40
2018-11-13T20:40:33.279Z,5.40
2018-11-13T20:43:03.380Z,5.40
2018-11-13T20:45:32.508Z,5.30
2018-11-13T20:48:00.915Z,5.30
2018-11-13T20:50:31.152Z,5.20
2018-11-13T20:52:59.789Z,5.20
2018-11-13T20:55:28.745Z,5.10
2018-11-13T20:57:57.420Z,5.10
2018-11-13T21:00:31.131Z,5.00
2018-11-13T21:03:00.205Z,5.00
2018-11-13T21:05:29.265Z,5.00
2018-11-13T21:07:57.728Z,5.00
2018-11-13T21:10:30.456Z,5.00
2018-11-13T21:12:59.688Z,5.00
2018-11-13T21:15:28.080Z,5.00
2018-11-13T21:17:56.747Z,5.00
2018-11-13T21:20:26.024Z,5.00
2018-11-13T21:22:54.451Z,4.90
2018-11-13T21:25:23.841Z,4.90
2018-11-13T21:27:56.395Z,4.80
2018-11-13T21:30:25.127Z,4.80
2018-11-13T21:32:54.387Z,4.70
2018-11-13T21:35:23.372Z,4.70
2018-11-13T21:37:53.590Z,4.60
2018-11-13T21:40:24.395Z,4.60
2018-11-13T21:42:53.767Z,4.50
2018-11-13T21:45:23.628Z,4.50
2018-11-13T21:47:52.614Z,4.40
2018-11-13T21:50:22.904Z,4.40
2018-11-13T21:52:51.292Z,4.30
2018-11-13T21:55:21.106Z,4.30
2018-11-13T21:57:50.458Z,4.30
2018-11-13T22:00:25.369Z,4.30
2018-11-13T22:02:56.118Z,4.30
2018-11-13T22:05:27.524Z,4.20
2018-11-13T22:07:56.040Z,4.20
2018-11-13T22:10:26.039Z,4.20
2018-11-13T22:12:54.827Z,4.10
2018-11-13T22:15:24.958Z,4.10
2018-11-13T22:17:53.721Z,4.10
2018-11-13T22:20:23.061Z,4.10
2018-11-13T22:22:53.420Z,4.20
2018-11-13T22:25:23.321Z,4.10
2018-11-13T22:27:53.231Z,4.10
